sensor_id;sensor_type;location;lat;lon;timestamp;temperature;humidity
70154;DHT22;57519;51.494;-2.626;2023-04-01T00:00:59;9.95;95.36
70154;DHT22;57519;51.494;-2.626;2023-04-01T00:03:26;9.95;95.24
70154;DHT22;57519;51.494;-2.626;2023-04-01T00:05:53;9.94;95.27
70154;DHT22;57519;51.494;-2.626;2023-04-01T00:08:19;9.97;95.49
70154;DHT22;57519;51.494;-2.626;2023-04-01T00:10:44;9.97;95.38
70154;DHT22;57519;51.494;-2.626;2023-04-01T00:13:11;9.97;95.15
70154;DHT22;57519;51.494;-2.626;2023-04-01T00:15:37;9.93;95.28
70154;DHT22;57519;51.494;-2.626;2023-04-01T00:18:03;9.97;95.27
70154;DHT22;57519;51.494;-2.626;2023-04-01T00:20:30;9.93;95.16
70154;DHT22;57519;51.494;-2.626;2023-04-01T00:22:55;9.94;95.05
70154;DHT22;57519;51.494;-2.626;2023-04-01T00:25:21;9.93;95.13
70154;DHT22;57519;51.494;-2.626;2023-04-01T00:27:47;9.94;95.12
70154;DHT22;57519;51.494;-2.626;2023-04-01T00:30:13;9.91;95.03
70154;DHT22;57519;51.494;-2.626;2023-04-01T00:32:38;9.91;95.13
70154;DHT22;57519;51.494;-2.626;2023-04-01T00:35:04;9.88;95.33
70154;DHT22;57519;51.494;-2.626;2023-04-01T00:37:30;9.88;95.38
70154;DHT22;57519;51.494;-2.626;2023-04-01T00:39:56;9.83;95.31
70154;DHT22;57519;51.494;-2.626;2023-04-01T00:42:25;9.84;95.37
70154;DHT22;57519;51.494;-2.626;2023-04-01T00:44:53;9.81;95.42
70154;DHT22;57519;51.494;-2.626;2023-04-01T00:47:19;9.85;95.43
70154;DHT22;57519;51.494;-2.626;2023-04-01T00:49:49;9.84;95.42
70154;DHT22;57519;51.494;-2.626;2023-04-01T00:52:17;9.81;95.48
70154;DHT22;57519;51.494;-2.626;2023-04-01T00:54:47;9.81;95.48
70154;DHT22;57519;51.494;-2.626;2023-04-01T00:57:43;9.77;95.71
70154;DHT22;57519;51.494;-2.626;2023-04-01T01:00:12;9.81;95.75
70154;DHT22;57519;51.494;-2.626;2023-04-01T01:02:41;9.77;95.67
70154;DHT22;57519;51.494;-2.626;2023-04-01T01:05:13;9.83;95.78
70154;DHT22;57519;51.494;-2.626;2023-04-01T01:07:41;9.83;95.87
70154;DHT22;57519;51.494;-2.626;2023-04-01T01:10:20;9.78;95.96
70154;DHT22;57519;51.494;-2.626;2023-04-01T01:13:10;9.77;95.89
70154;DHT22;57519;51.494;-2.626;2023-04-01T01:21:42;9.77;95.89
70154;DHT22;57519;51.494;-2.626;2023-04-01T01:25:15;9.78;96.01
70154;DHT22;57519;51.494;-2.626;2023-04-01T01:27:21;9.78;95.99
70154;DHT22;57519;51.494;-2.626;2023-04-01T01:38:17;9.74;95.92
70154;DHT22;57519;51.494;-2.626;2023-04-01T01:40:45;9.71;95.90
70154;DHT22;57519;51.494;-2.626;2023-04-01T01:43:15;9.73;95.94
70154;DHT22;57519;51.494;-2.626;2023-04-01T01:45:54;9.73;96.00
70154;DHT22;57519;51.494;-2.626;2023-04-01T01:48:34;9.71;96.07
70154;DHT22;57519;51.494;-2.626;2023-04-01T01:51:00;9.76;96.08
70154;DHT22;57519;51.494;-2.626;2023-04-01T01:53:26;9.73;95.91
70154;DHT22;57519;51.494;-2.626;2023-04-01T01:55:51;9.67;95.99
70154;DHT22;57519;51.494;-2.626;2023-04-01T01:58:41;9.71;96.00
70154;DHT22;57519;51.494;-2.626;2023-04-01T02:01:12;9.71;95.77
70154;DHT22;57519;51.494;-2.626;2023-04-01T02:03:39;9.69;95.91
70154;DHT22;57519;51.494;-2.626;2023-04-01T02:06:08;9.69;95.83
70154;DHT22;57519;51.494;-2.626;2023-04-01T02:08:57;9.70;95.86
70154;DHT22;57519;51.494;-2.626;2023-04-01T02:11:32;9.69;95.75
70154;DHT22;57519;51.494;-2.626;2023-04-01T02:14:10;9.71;95.53
70154;DHT22;57519;51.494;-2.626;2023-04-01T02:16:43;9.70;95.76
70154;DHT22;57519;51.494;-2.626;2023-04-01T02:19:11;9.63;95.53
70154;DHT22;57519;51.494;-2.626;2023-04-01T02:21:39;9.66;95.62
70154;DHT22;57519;51.494;-2.626;2023-04-01T02:24:08;9.66;95.48
70154;DHT22;57519;51.494;-2.626;2023-04-01T02:26:35;9.67;95.39
70154;DHT22;57519;51.494;-2.626;2023-04-01T02:29:01;9.61;95.41
70154;DHT22;57519;51.494;-2.626;2023-04-01T02:31:29;9.60;95.53
70154;DHT22;57519;51.494;-2.626;2023-04-01T02:33:56;9.60;95.47
70154;DHT22;57519;51.494;-2.626;2023-04-01T02:36:21;9.58;95.45
70154;DHT22;57519;51.494;-2.626;2023-04-01T02:38:48;9.58;95.21
70154;DHT22;57519;51.494;-2.626;2023-04-01T02:41:15;9.58;95.33
70154;DHT22;57519;51.494;-2.626;2023-04-01T02:43:41;9.53;95.40
70154;DHT22;57519;51.494;-2.626;2023-04-01T02:46:09;9.51;95.25
70154;DHT22;57519;51.494;-2.626;2023-04-01T02:48:35;9.51;95.23
70154;DHT22;57519;51.494;-2.626;2023-04-01T02:51:03;9.50;95.24
70154;DHT22;57519;51.494;-2.626;2023-04-01T02:53:28;9.46;95.15
70154;DHT22;57519;51.494;-2.626;2023-04-01T02:55:54;9.53;95.25
70154;DHT22;57519;51.494;-2.626;2023-04-01T02:58:21;9.46;95.12
70154;DHT22;57519;51.494;-2.626;2023-04-01T03:00:46;9.50;95.08
70154;DHT22;57519;51.494;-2.626;2023-04-01T03:03:12;9.47;95.12
70154;DHT22;57519;51.494;-2.626;2023-04-01T03:05:38;9.47;95.11
70154;DHT22;57519;51.494;-2.626;2023-04-01T03:08:04;9.44;95.28
70154;DHT22;57519;51.494;-2.626;2023-04-01T03:10:30;9.47;95.27
70154;DHT22;57519;51.494;-2.626;2023-04-01T03:12:55;9.44;95.36
70154;DHT22;57519;51.494;-2.626;2023-04-01T03:15:21;9.43;95.45
70154;DHT22;57519;51.494;-2.626;2023-04-01T03:17:46;9.42;95.37
70154;DHT22;57519;51.494;-2.626;2023-04-01T03:20:12;9.43;95.26
70154;DHT22;57519;51.494;-2.626;2023-04-01T03:22:38;9.39;95.44
70154;DHT22;57519;51.494;-2.626;2023-04-01T03:25:05;9.39;95.29
70154;DHT22;57519;51.494;-2.626;2023-04-01T03:27:30;9.36;95.30
70154;DHT22;57519;51.494;-2.626;2023-04-01T03:29:56;9.33;95.54
70154;DHT22;57519;51.494;-2.626;2023-04-01T03:32:21;9.35;95.55
70154;DHT22;57519;51.494;-2.626;2023-04-01T03:34:47;9.39;95.51
70154;DHT22;57519;51.494;-2.626;2023-04-01T03:37:13;9.36;95.62
70154;DHT22;57519;51.494;-2.626;2023-04-01T03:39:39;9.33;95.46
70154;DHT22;57519;51.494;-2.626;2023-04-01T03:42:04;9.35;95.56
70154;DHT22;57519;51.494;-2.626;2023-04-01T03:44:32;9.33;95.48
70154;DHT22;57519;51.494;-2.626;2023-04-01T03:46:58;9.35;95.42
70154;DHT22;57519;51.494;-2.626;2023-04-01T03:49:24;9.37;95.42
70154;DHT22;57519;51.494;-2.626;2023-04-01T03:51:49;9.37;95.39
70154;DHT22;57519;51.494;-2.626;2023-04-01T03:54:15;9.36;95.49
70154;DHT22;57519;51.494;-2.626;2023-04-01T03:56:42;9.33;95.53
70154;DHT22;57519;51.494;-2.626;2023-04-01T03:59:07;9.37;95.44
70154;DHT22;57519;51.494;-2.626;2023-04-01T04:01:33;9.36;95.48
70154;DHT22;57519;51.494;-2.626;2023-04-01T04:03:59;9.36;95.45
70154;DHT22;57519;51.494;-2.626;2023-04-01T04:06:25;9.33;95.52
70154;DHT22;57519;51.494;-2.626;2023-04-01T04:08:51;9.30;95.41
70154;DHT22;57519;51.494;-2.626;2023-04-01T04:11:18;9.29;95.45
70154;DHT22;57519;51.494;-2.626;2023-04-01T04:13:43;9.33;95.48
70154;DHT22;57519;51.494;-2.626;2023-04-01T04:16:09;9.33;95.39
70154;DHT22;57519;51.494;-2.626;2023-04-01T04:18:36;9.30;95.48
70154;DHT22;57519;51.494;-2.626;2023-04-01T04:21:01;9.35;95.39
70154;DHT22;57519;51.494;-2.626;2023-04-01T04:23:29;9.39;95.45
70154;DHT22;57519;51.494;-2.626;2023-04-01T04:26:08;9.33;95.37
70154;DHT22;57519;51.494;-2.626;2023-04-01T04:28:43;9.32;95.56
70154;DHT22;57519;51.494;-2.626;2023-04-01T04:31:09;9.32;95.46
70154;DHT22;57519;51.494;-2.626;2023-04-01T04:33:34;9.33;95.62
70154;DHT22;57519;51.494;-2.626;2023-04-01T04:36:00;9.35;95.64
70154;DHT22;57519;51.494;-2.626;2023-04-01T04:38:26;9.30;95.55
70154;DHT22;57519;51.494;-2.626;2023-04-01T04:40:52;9.36;95.64
70154;DHT22;57519;51.494;-2.626;2023-04-01T04:43:18;9.33;95.56
70154;DHT22;57519;51.494;-2.626;2023-04-01T04:45:44;9.30;95.60
70154;DHT22;57519;51.494;-2.626;2023-04-01T04:48:15;9.32;95.57
70154;DHT22;57519;51.494;-2.626;2023-04-01T04:50:52;9.29;95.69
70154;DHT22;57519;51.494;-2.626;2023-04-01T04:53:21;9.30;95.82
70154;DHT22;57519;51.494;-2.626;2023-04-01T04:55:48;9.29;95.81
70154;DHT22;57519;51.494;-2.626;2023-04-01T04:58:14;9.30;95.72
70154;DHT22;57519;51.494;-2.626;2023-04-01T05:00:40;9.29;95.81
70154;DHT22;57519;51.494;-2.626;2023-04-01T05:03:05;9.26;95.96
70154;DHT22;57519;51.494;-2.626;2023-04-01T05:05:31;9.28;96.03
70154;DHT22;57519;51.494;-2.626;2023-04-01T05:07:57;9.26;96.00
70154;DHT22;57519;51.494;-2.626;2023-04-01T05:10:22;9.25;96.07
70154;DHT22;57519;51.494;-2.626;2023-04-01T05:12:47;9.26;96.13
70154;DHT22;57519;51.494;-2.626;2023-04-01T05:15:13;9.30;96.00
70154;DHT22;57519;51.494;-2.626;2023-04-01T05:17:39;9.29;95.97
70154;DHT22;57519;51.494;-2.626;2023-04-01T05:20:05;9.28;96.04
70154;DHT22;57519;51.494;-2.626;2023-04-01T05:22:31;9.28;95.91
70154;DHT22;57519;51.494;-2.626;2023-04-01T05:24:56;9.25;95.99
70154;DHT22;57519;51.494;-2.626;2023-04-01T05:27:22;9.29;96.14
70154;DHT22;57519;51.494;-2.626;2023-04-01T05:29:47;9.23;96.12
70154;DHT22;57519;51.494;-2.626;2023-04-01T05:32:12;9.28;96.15
70154;DHT22;57519;51.494;-2.626;2023-04-01T05:34:38;9.22;96.04
70154;DHT22;57519;51.494;-2.626;2023-04-01T05:37:03;9.25;96.13
70154;DHT22;57519;51.494;-2.626;2023-04-01T05:39:29;9.23;96.12
70154;DHT22;57519;51.494;-2.626;2023-04-01T05:41:54;9.23;96.12
70154;DHT22;57519;51.494;-2.626;2023-04-01T05:44:20;9.22;95.99
70154;DHT22;57519;51.494;-2.626;2023-04-01T05:46:45;9.22;96.08
70154;DHT22;57519;51.494;-2.626;2023-04-01T05:49:10;9.20;96.02
70154;DHT22;57519;51.494;-2.626;2023-04-01T05:51:37;9.25;96.08
70154;DHT22;57519;51.494;-2.626;2023-04-01T05:54:05;9.23;96.00
70154;DHT22;57519;51.494;-2.626;2023-04-01T05:56:30;9.26;96.09
70154;DHT22;57519;51.494;-2.626;2023-04-01T05:58:55;9.23;95.90
70154;DHT22;57519;51.494;-2.626;2023-04-01T06:01:21;9.23;95.92
70154;DHT22;57519;51.494;-2.626;2023-04-01T06:03:46;9.19;95.99
70154;DHT22;57519;51.494;-2.626;2023-04-01T06:06:28;9.20;96.01
70154;DHT22;57519;51.494;-2.626;2023-04-01T06:08:56;9.20;95.97
70154;DHT22;57519;51.494;-2.626;2023-04-01T06:11:28;9.20;96.04
70154;DHT22;57519;51.494;-2.626;2023-04-01T06:17:46;9.23;95.99
70154;DHT22;57519;51.494;-2.626;2023-04-01T06:20:03;9.26;95.90
70154;DHT22;57519;51.494;-2.626;2023-04-01T06:30:47;9.30;95.92
70154;DHT22;57519;51.494;-2.626;2023-04-01T06:54:33;9.26;95.88
70154;DHT22;57519;51.494;-2.626;2023-04-01T06:57:16;9.23;95.83
70154;DHT22;57519;51.494;-2.626;2023-04-01T06:59:45;9.23;95.66
70154;DHT22;57519;51.494;-2.626;2023-04-01T07:02:37;9.25;95.80
70154;DHT22;57519;51.494;-2.626;2023-04-01T07:05:04;9.30;95.98
70154;DHT22;57519;51.494;-2.626;2023-04-01T07:07:35;9.30;95.98
70154;DHT22;57519;51.494;-2.626;2023-04-01T07:10:11;9.32;95.97
70154;DHT22;57519;51.494;-2.626;2023-04-01T07:12:52;9.25;95.73
70154;DHT22;57519;51.494;-2.626;2023-04-01T07:15:24;9.32;95.74
70154;DHT22;57519;51.494;-2.626;2023-04-01T07:18:03;9.35;95.73
70154;DHT22;57519;51.494;-2.626;2023-04-01T07:20:32;9.28;95.51
70154;DHT22;57519;51.494;-2.626;2023-04-01T07:23:03;9.28;95.64
70154;DHT22;57519;51.494;-2.626;2023-04-01T07:25:34;9.30;95.65
70154;DHT22;57519;51.494;-2.626;2023-04-01T07:28:12;9.32;95.56
70154;DHT22;57519;51.494;-2.626;2023-04-01T07:31:15;9.30;95.52
70154;DHT22;57519;51.494;-2.626;2023-04-01T07:38:59;9.42;95.71
70154;DHT22;57519;51.494;-2.626;2023-04-01T07:42:00;9.44;95.72
70154;DHT22;57519;51.494;-2.626;2023-04-01T07:50:25;9.61;95.61
70154;DHT22;57519;51.494;-2.626;2023-04-01T08:12:36;9.94;93.87
70154;DHT22;57519;51.494;-2.626;2023-04-01T08:15:28;9.90;93.15
70154;DHT22;57519;51.494;-2.626;2023-04-01T08:20:51;9.80;92.93
70154;DHT22;57519;51.494;-2.626;2023-04-01T08:23:22;9.58;92.06
70154;DHT22;57519;51.494;-2.626;2023-04-01T08:26:02;9.60;92.32
70154;DHT22;57519;51.494;-2.626;2023-04-01T08:33:57;9.60;92.97
70154;DHT22;57519;51.494;-2.626;2023-04-01T08:36:35;9.61;93.11
70154;DHT22;57519;51.494;-2.626;2023-04-01T08:56:17;9.37;92.62
70154;DHT22;57519;51.494;-2.626;2023-04-01T09:13:07;9.97;93.15
70154;DHT22;57519;51.494;-2.626;2023-04-01T09:15:47;10.01;92.91
70154;DHT22;57519;51.494;-2.626;2023-04-01T09:24:38;10.01;92.55
70154;DHT22;57519;51.494;-2.626;2023-04-01T09:27:28;10.01;91.87
70154;DHT22;57519;51.494;-2.626;2023-04-01T09:30:52;10.12;92.11
70154;DHT22;57519;51.494;-2.626;2023-04-01T09:35:49;9.97;90.56
70154;DHT22;57519;51.494;-2.626;2023-04-01T09:38:29;10.15;91.34
70154;DHT22;57519;51.494;-2.626;2023-04-01T09:46:51;10.31;90.39
70154;DHT22;57519;51.494;-2.626;2023-04-01T09:57:41;10.16;91.26
70154;DHT22;57519;51.494;-2.626;2023-04-01T10:15:34;9.78;92.99
70154;DHT22;57519;51.494;-2.626;2023-04-01T10:33:57;9.95;93.40
70154;DHT22;57519;51.494;-2.626;2023-04-01T10:53:40;10.29;90.30
70154;DHT22;57519;51.494;-2.626;2023-04-01T10:56:15;10.35;90.76
70154;DHT22;57519;51.494;-2.626;2023-04-01T11:44:11;9.91;89.87
70154;DHT22;57519;51.494;-2.626;2023-04-01T11:49:44;9.93;90.12
70154;DHT22;57519;51.494;-2.626;2023-04-01T11:58:23;9.97;91.49
70154;DHT22;57519;51.494;-2.626;2023-04-01T12:32:21;10.12;86.68
70154;DHT22;57519;51.494;-2.626;2023-04-01T12:35:32;10.25;88.83
70154;DHT22;57519;51.494;-2.626;2023-04-01T12:52:12;10.71;83.70
70154;DHT22;57519;51.494;-2.626;2023-04-01T12:57:16;10.62;84.40
70154;DHT22;57519;51.494;-2.626;2023-04-01T13:05:24;11.17;83.61
70154;DHT22;57519;51.494;-2.626;2023-04-01T13:08:02;11.14;83.43
70154;DHT22;57519;51.494;-2.626;2023-04-01T13:16:06;11.15;85.12
70154;DHT22;57519;51.494;-2.626;2023-04-01T13:19:05;11.15;84.85
70154;DHT22;57519;51.494;-2.626;2023-04-01T13:24:10;11.15;82.54
70154;DHT22;57519;51.494;-2.626;2023-04-01T13:29:25;11.40;80.97
70154;DHT22;57519;51.494;-2.626;2023-04-01T13:43:19;11.73;79.18
70154;DHT22;57519;51.494;-2.626;2023-04-01T13:59:30;12.14;80.40
70154;DHT22;57519;51.494;-2.626;2023-04-01T14:10:46;11.61;80.88
70154;DHT22;57519;51.494;-2.626;2023-04-01T14:13:23;11.83;81.14
70154;DHT22;57519;51.494;-2.626;2023-04-01T14:16:20;12.03;80.94
70154;DHT22;57519;51.494;-2.626;2023-04-01T14:19:08;12.10;79.96
70154;DHT22;57519;51.494;-2.626;2023-04-01T14:22:01;12.13;79.09
70154;DHT22;57519;51.494;-2.626;2023-04-01T14:24:51;11.91;77.04
70154;DHT22;57519;51.494;-2.626;2023-04-01T14:40:56;11.72;77.99
70154;DHT22;57519;51.494;-2.626;2023-04-01T14:49:04;12.21;77.03
70154;DHT22;57519;51.494;-2.626;2023-04-01T14:51:36;12.00;75.77
70154;DHT22;57519;51.494;-2.626;2023-04-01T14:54:19;12.25;76.16
70154;DHT22;57519;51.494;-2.626;2023-04-01T14:57:11;12.35;76.39
70154;DHT22;57519;51.494;-2.626;2023-04-01T14:59:47;12.30;73.53
70154;DHT22;57519;51.494;-2.626;2023-04-01T15:05:16;12.88;74.05
70154;DHT22;57519;51.494;-2.626;2023-04-01T15:13:15;12.96;72.73
70154;DHT22;57519;51.494;-2.626;2023-04-01T15:32:17;12.82;72.75
70154;DHT22;57519;51.494;-2.626;2023-04-01T15:42:55;12.78;70.95
70154;DHT22;57519;51.494;-2.626;2023-04-01T15:47:59;12.90;72.89
70154;DHT22;57519;51.494;-2.626;2023-04-01T15:53:37;12.72;70.04
70154;DHT22;57519;51.494;-2.626;2023-04-01T16:11:53;12.85;70.99
70154;DHT22;57519;51.494;-2.626;2023-04-01T16:14:44;12.88;69.46
70154;DHT22;57519;51.494;-2.626;2023-04-01T16:17:23;12.90;71.07
70154;DHT22;57519;51.494;-2.626;2023-04-01T16:20:14;12.96;70.26
70154;DHT22;57519;51.494;-2.626;2023-04-01T16:22:55;12.97;69.66
70154;DHT22;57519;51.494;-2.626;2023-04-01T16:25:40;12.99;70.38
70154;DHT22;57519;51.494;-2.626;2023-04-01T16:31:15;12.68;71.40
70154;DHT22;57519;51.494;-2.626;2023-04-01T17:02:10;12.14;69.53
70154;DHT22;57519;51.494;-2.626;2023-04-01T17:04:59;12.20;71.22
70154;DHT22;57519;51.494;-2.626;2023-04-01T17:08:01;12.17;69.87
70154;DHT22;57519;51.494;-2.626;2023-04-01T17:10:33;12.25;69.13
70154;DHT22;57519;51.494;-2.626;2023-04-01T17:24:14;11.93;70.93
70154;DHT22;57519;51.494;-2.626;2023-04-01T17:32:52;11.73;73.50
70154;DHT22;57519;51.494;-2.626;2023-04-01T17:41:01;11.66;71.92
70154;DHT22;57519;51.494;-2.626;2023-04-01T17:43:50;11.58;71.62
70154;DHT22;57519;51.494;-2.626;2023-04-01T17:49:50;11.65;74.11
70154;DHT22;57519;51.494;-2.626;2023-04-01T17:55:25;11.67;71.57
70154;DHT22;57519;51.494;-2.626;2023-04-01T18:14:09;11.43;71.28
70154;DHT22;57519;51.494;-2.626;2023-04-01T18:22:53;11.15;71.17
70154;DHT22;57519;51.494;-2.626;2023-04-01T18:28:07;10.94;72.66
70154;DHT22;57519;51.494;-2.626;2023-04-01T18:30:34;10.85;72.29
70154;DHT22;57519;51.494;-2.626;2023-04-01T18:36:21;10.79;73.07
70154;DHT22;57519;51.494;-2.626;2023-04-01T18:39:32;10.83;72.87
70154;DHT22;57519;51.494;-2.626;2023-04-01T18:47:44;10.74;73.35
70154;DHT22;57519;51.494;-2.626;2023-04-01T18:55:46;10.59;73.66
70154;DHT22;57519;51.494;-2.626;2023-04-01T19:01:11;10.43;76.40
70154;DHT22;57519;51.494;-2.626;2023-04-01T19:06:42;10.36;75.03
70154;DHT22;57519;51.494;-2.626;2023-04-01T19:09:18;10.31;75.46
70154;DHT22;57519;51.494;-2.626;2023-04-01T19:20:17;10.16;75.64
70154;DHT22;57519;51.494;-2.626;2023-04-01T19:25:54;10.08;75.84
70154;DHT22;57519;51.494;-2.626;2023-04-01T19:36:50;9.97;74.07
70154;DHT22;57519;51.494;-2.626;2023-04-01T19:42:07;9.91;73.45
70154;DHT22;57519;51.494;-2.626;2023-04-01T19:44:57;9.88;73.57
70154;DHT22;57519;51.494;-2.626;2023-04-01T19:51:06;9.83;74.71
70154;DHT22;57519;51.494;-2.626;2023-04-01T19:56:24;9.70;73.08
70154;DHT22;57519;51.494;-2.626;2023-04-01T19:59:29;9.67;73.66
70154;DHT22;57519;51.494;-2.626;2023-04-01T20:10:58;9.61;73.92
70154;DHT22;57519;51.494;-2.626;2023-04-01T20:16:04;9.66;74.27
70154;DHT22;57519;51.494;-2.626;2023-04-01T20:27:53;9.64;74.61
70154;DHT22;57519;51.494;-2.626;2023-04-01T20:44:10;9.60;75.51
70154;DHT22;57519;51.494;-2.626;2023-04-01T20:57:38;9.47;76.66
70154;DHT22;57519;51.494;-2.626;2023-04-01T21:06:10;9.48;76.35
70154;DHT22;57519;51.494;-2.626;2023-04-01T21:12:00;9.51;75.94
70154;DHT22;57519;51.494;-2.626;2023-04-01T21:51:22;9.16;77.97
70154;DHT22;57519;51.494;-2.626;2023-04-01T22:09:29;9.04;78.38
70154;DHT22;57519;51.494;-2.626;2023-04-01T22:28:07;9.01;78.64
70154;DHT22;57519;51.494;-2.626;2023-04-01T22:30:38;9.08;78.82
70154;DHT22;57519;51.494;-2.626;2023-04-01T22:33:19;8.99;78.89
70154;DHT22;57519;51.494;-2.626;2023-04-01T22:55:15;8.95;78.80
70154;DHT22;57519;51.494;-2.626;2023-04-01T22:57:50;8.95;79.04
70154;DHT22;57519;51.494;-2.626;2023-04-01T23:00:43;8.93;79.74
70154;DHT22;57519;51.494;-2.626;2023-04-01T23:03:31;8.95;79.24
70154;DHT22;57519;51.494;-2.626;2023-04-01T23:09:31;8.88;79.59
70154;DHT22;57519;51.494;-2.626;2023-04-01T23:15:22;8.87;80.46
70154;DHT22;57519;51.494;-2.626;2023-04-01T23:20:52;8.84;80.17
70154;DHT22;57519;51.494;-2.626;2023-04-01T23:26:19;8.84;80.33
70154;DHT22;57519;51.494;-2.626;2023-04-01T23:28:56;8.84;80.14
70154;DHT22;57519;51.494;-2.626;2023-04-01T23:31:40;8.81;80.64
70154;DHT22;57519;51.494;-2.626;2023-04-01T23:40:00;8.82;82.41
70154;DHT22;57519;51.494;-2.626;2023-04-01T23:42:44;8.81;82.04
70154;DHT22;57519;51.494;-2.626;2023-04-01T23:48:58;8.81;82.67
70154;DHT22;57519;51.494;-2.626;2023-04-01T23:51:37;8.71;82.69
